sensor_id;sensor_type;location;lat;lon;timestamp;P1;durP1;ratioP1;P2;durP2;ratioP2
28714;SDS011;15886;49.170;14.572;2023-01-30T00:02:04;37.50;;;18.77;;
28714;SDS011;15886;49.170;14.572;2023-01-30T00:04:32;37.70;;;19.77;;
28714;SDS011;15886;49.170;14.572;2023-01-30T00:07:00;40.53;;;20.70;;
28714;SDS011;15886;49.170;14.572;2023-01-30T00:09:28;46.15;;;22.17;;
28714;SDS011;15886;49.170;14.572;2023-01-30T00:12:08;50.45;;;23.23;;
28714;SDS011;15886;49.170;14.572;2023-01-30T00:14:37;47.65;;;22.40;;
28714;SDS011;15886;49.170;14.572;2023-01-30T00:17:05;42.55;;;21.05;;
28714;SDS011;15886;49.170;14.572;2023-01-30T00:19:33;53.85;;;26.23;;
28714;SDS011;15886;49.170;14.572;2023-01-30T00:22:02;38.60;;;20.63;;
28714;SDS011;15886;49.170;14.572;2023-01-30T00:27:09;38.08;;;20.30;;
28714;SDS011;15886;49.170;14.572;2023-01-30T00:29:37;33.30;;;18.52;;
28714;SDS011;15886;49.170;14.572;2023-01-30T00:32:05;44.28;;;21.40;;
28714;SDS011;15886;49.170;14.572;2023-01-30T00:34:33;46.33;;;20.90;;
28714;SDS011;15886;49.170;14.572;2023-01-30T00:37:01;32.47;;;17.48;;
28714;SDS011;15886;49.170;14.572;2023-01-30T00:39:34;31.73;;;17.52;;
28714;SDS011;15886;49.170;14.572;2023-01-30T00:42:02;36.17;;;17.27;;
28714;SDS011;15886;49.170;14.572;2023-01-30T00:44:51;31.63;;;16.77;;
28714;SDS011;15886;49.170;14.572;2023-01-30T00:47:38;40.20;;;19.88;;
28714;SDS011;15886;49.170;14.572;2023-01-30T00:50:06;40.40;;;18.58;;
28714;SDS011;15886;49.170;14.572;2023-01-30T00:52:35;39.92;;;20.45;;
28714;SDS011;15886;49.170;14.572;2023-01-30T00:55:04;34.33;;;18.25;;
28714;SDS011;15886;49.170;14.572;2023-01-30T00:57:34;37.65;;;19.40;;
28714;SDS011;15886;49.170;14.572;2023-01-30T01:02:39;37.05;;;19.80;;
28714;SDS011;15886;49.170;14.572;2023-01-30T01:05:08;35.92;;;18.25;;
28714;SDS011;15886;49.170;14.572;2023-01-30T01:07:36;32.80;;;18.00;;
28714;SDS011;15886;49.170;14.572;2023-01-30T01:10:04;33.20;;;17.10;;
28714;SDS011;15886;49.170;14.572;2023-01-30T01:12:33;36.00;;;18.50;;
28714;SDS011;15886;49.170;14.572;2023-01-30T01:15:01;36.75;;;18.70;;
28714;SDS011;15886;49.170;14.572;2023-01-30T01:17:31;36.35;;;19.15;;
28714;SDS011;15886;49.170;14.572;2023-01-30T01:19:59;42.72;;;20.75;;
28714;SDS011;15886;49.170;14.572;2023-01-30T01:22:27;41.97;;;20.77;;
28714;SDS011;15886;49.170;14.572;2023-01-30T01:24:55;50.45;;;20.48;;
28714;SDS011;15886;49.170;14.572;2023-01-30T01:27:23;40.47;;;20.35;;
28714;SDS011;15886;49.170;14.572;2023-01-30T01:29:51;44.72;;;21.08;;
28714;SDS011;15886;49.170;14.572;2023-01-30T01:32:20;41.70;;;21.02;;
28714;SDS011;15886;49.170;14.572;2023-01-30T01:34:49;38.15;;;20.25;;
28714;SDS011;15886;49.170;14.572;2023-01-30T01:37:20;40.58;;;21.25;;
28714;SDS011;15886;49.170;14.572;2023-01-30T01:39:49;36.33;;;18.65;;
28714;SDS011;15886;49.170;14.572;2023-01-30T01:42:36;36.33;;;18.65;;
28714;SDS011;15886;49.170;14.572;2023-01-30T01:47:40;49.72;;;22.30;;
28714;SDS011;15886;49.170;14.572;2023-01-30T01:50:38;40.55;;;20.67;;
28714;SDS011;15886;49.170;14.572;2023-01-30T01:53:13;42.45;;;22.40;;
28714;SDS011;15886;49.170;14.572;2023-01-30T01:55:48;39.35;;;20.88;;
28714;SDS011;15886;49.170;14.572;2023-01-30T01:58:22;40.47;;;21.50;;
28714;SDS011;15886;49.170;14.572;2023-01-30T02:00:58;48.85;;;24.40;;
28714;SDS011;15886;49.170;14.572;2023-01-30T02:03:29;44.75;;;22.30;;
28714;SDS011;15886;49.170;14.572;2023-01-30T02:06:00;41.47;;;21.10;;
28714;SDS011;15886;49.170;14.572;2023-01-30T02:08:52;48.28;;;23.10;;
28714;SDS011;15886;49.170;14.572;2023-01-30T02:11:23;42.95;;;22.15;;
28714;SDS011;15886;49.170;14.572;2023-01-30T02:13:54;49.72;;;24.13;;
28714;SDS011;15886;49.170;14.572;2023-01-30T02:16:24;46.15;;;22.70;;
28714;SDS011;15886;49.170;14.572;2023-01-30T02:18:52;58.50;;;24.95;;
28714;SDS011;15886;49.170;14.572;2023-01-30T02:21:26;45.90;;;23.92;;
28714;SDS011;15886;49.170;14.572;2023-01-30T02:32:37;46.63;;;23.95;;
28714;SDS011;15886;49.170;14.572;2023-01-30T02:38:33;48.03;;;25.48;;
28714;SDS011;15886;49.170;14.572;2023-01-30T02:44:36;54.15;;;26.95;;
28714;SDS011;15886;49.170;14.572;2023-01-30T02:50:42;54.38;;;28.83;;
28714;SDS011;15886;49.170;14.572;2023-01-30T02:53:18;52.08;;;28.60;;
28714;SDS011;15886;49.170;14.572;2023-01-30T02:55:47;61.83;;;30.30;;
28714;SDS011;15886;49.170;14.572;2023-01-30T02:58:15;55.70;;;29.90;;
28714;SDS011;15886;49.170;14.572;2023-01-30T03:03:48;41.58;;;20.45;;
28714;SDS011;15886;49.170;14.572;2023-01-30T03:09:14;33.08;;;18.67;;
28714;SDS011;15886;49.170;14.572;2023-01-30T03:11:50;27.90;;;15.43;;
28714;SDS011;15886;49.170;14.572;2023-01-30T03:17:31;28.08;;;14.93;;
28714;SDS011;15886;49.170;14.572;2023-01-30T03:20:01;34.58;;;19.75;;
28714;SDS011;15886;49.170;14.572;2023-01-30T03:22:31;29.15;;;17.23;;
28714;SDS011;15886;49.170;14.572;2023-01-30T03:24:59;34.45;;;19.58;;
28714;SDS011;15886;49.170;14.572;2023-01-30T03:27:27;35.90;;;20.48;;
28714;SDS011;15886;49.170;14.572;2023-01-30T03:29:56;39.03;;;18.35;;
28714;SDS011;15886;49.170;14.572;2023-01-30T03:32:24;31.10;;;17.38;;
28714;SDS011;15886;49.170;14.572;2023-01-30T03:34:55;73.28;;;33.50;;
28714;SDS011;15886;49.170;14.572;2023-01-30T03:37:25;55.15;;;26.67;;
28714;SDS011;15886;49.170;14.572;2023-01-30T03:39:54;23.63;;;15.07;;
28714;SDS011;15886;49.170;14.572;2023-01-30T03:42:22;28.58;;;15.70;;
28714;SDS011;15886;49.170;14.572;2023-01-30T03:44:52;25.13;;;14.65;;
28714;SDS011;15886;49.170;14.572;2023-01-30T03:47:20;29.13;;;14.80;;
28714;SDS011;15886;49.170;14.572;2023-01-30T03:49:50;26.02;;;14.88;;
28714;SDS011;15886;49.170;14.572;2023-01-30T03:52:18;26.95;;;15.88;;
28714;SDS011;15886;49.170;14.572;2023-01-30T03:54:46;29.35;;;16.50;;
28714;SDS011;15886;49.170;14.572;2023-01-30T03:57:15;30.20;;;16.23;;
28714;SDS011;15886;49.170;14.572;2023-01-30T03:59:43;26.70;;;14.57;;
28714;SDS011;15886;49.170;14.572;2023-01-30T04:02:14;29.90;;;15.98;;
28714;SDS011;15886;49.170;14.572;2023-01-30T04:04:49;30.27;;;15.15;;
28714;SDS011;15886;49.170;14.572;2023-01-30T04:07:18;55.40;;;23.10;;
28714;SDS011;15886;49.170;14.572;2023-01-30T04:09:48;47.53;;;23.85;;
28714;SDS011;15886;49.170;14.572;2023-01-30T04:12:18;45.65;;;20.52;;
28714;SDS011;15886;49.170;14.572;2023-01-30T04:14:53;48.15;;;22.02;;
28714;SDS011;15886;49.170;14.572;2023-01-30T04:17:28;40.75;;;21.50;;
28714;SDS011;15886;49.170;14.572;2023-01-30T04:20:15;126.35;;;47.05;;
28714;SDS011;15886;49.170;14.572;2023-01-30T04:22:48;52.13;;;25.63;;
28714;SDS011;15886;49.170;14.572;2023-01-30T04:25:17;33.35;;;18.30;;
28714;SDS011;15886;49.170;14.572;2023-01-30T04:27:46;44.80;;;21.70;;
28714;SDS011;15886;49.170;14.572;2023-01-30T04:30:18;251.88;;;84.32;;
28714;SDS011;15886;49.170;14.572;2023-01-30T04:32:48;96.03;;;39.38;;
28714;SDS011;15886;49.170;14.572;2023-01-30T04:35:18;86.20;;;37.00;;
28714;SDS011;15886;49.170;14.572;2023-01-30T04:37:47;61.85;;;28.60;;
28714;SDS011;15886;49.170;14.572;2023-01-30T04:40:18;67.68;;;29.98;;
28714;SDS011;15886;49.170;14.572;2023-01-30T04:42:53;61.72;;;29.67;;
28714;SDS011;15886;49.170;14.572;2023-01-30T04:45:48;44.95;;;22.40;;
28714;SDS011;15886;49.170;14.572;2023-01-30T04:48:18;36.00;;;19.38;;
28714;SDS011;15886;49.170;14.572;2023-01-30T04:50:50;34.47;;;18.35;;
28714;SDS011;15886;49.170;14.572;2023-01-30T04:53:19;33.75;;;18.77;;
28714;SDS011;15886;49.170;14.572;2023-01-30T04:55:49;35.03;;;17.20;;
28714;SDS011;15886;49.170;14.572;2023-01-30T04:58:20;30.65;;;16.55;;
28714;SDS011;15886;49.170;14.572;2023-01-30T05:00:48;33.13;;;17.65;;
28714;SDS011;15886;49.170;14.572;2023-01-30T05:03:20;31.23;;;17.10;;
28714;SDS011;15886;49.170;14.572;2023-01-30T05:05:49;30.35;;;16.52;;
28714;SDS011;15886;49.170;14.572;2023-01-30T05:08:17;30.70;;;16.13;;
28714;SDS011;15886;49.170;14.572;2023-01-30T05:10:45;32.42;;;18.17;;
28714;SDS011;15886;49.170;14.572;2023-01-30T05:13:13;28.40;;;15.73;;
28714;SDS011;15886;49.170;14.572;2023-01-30T05:15:44;32.15;;;18.25;;
28714;SDS011;15886;49.170;14.572;2023-01-30T05:18:13;35.72;;;18.17;;
28714;SDS011;15886;49.170;14.572;2023-01-30T05:20:42;33.17;;;17.75;;
28714;SDS011;15886;49.170;14.572;2023-01-30T05:23:10;32.13;;;17.15;;
28714;SDS011;15886;49.170;14.572;2023-01-30T05:25:39;35.97;;;19.95;;
28714;SDS011;15886;49.170;14.572;2023-01-30T05:28:29;35.22;;;19.08;;
28714;SDS011;15886;49.170;14.572;2023-01-30T05:31:18;35.72;;;18.30;;
28714;SDS011;15886;49.170;14.572;2023-01-30T05:33:56;34.45;;;18.35;;
28714;SDS011;15886;49.170;14.572;2023-01-30T05:36:25;31.20;;;17.75;;
28714;SDS011;15886;49.170;14.572;2023-01-30T05:38:56;27.65;;;16.42;;
28714;SDS011;15886;49.170;14.572;2023-01-30T05:41:25;29.20;;;15.43;;
28714;SDS011;15886;49.170;14.572;2023-01-30T05:43:54;26.40;;;15.07;;
28714;SDS011;15886;49.170;14.572;2023-01-30T05:46:22;27.17;;;14.10;;
28714;SDS011;15886;49.170;14.572;2023-01-30T05:48:51;25.60;;;14.38;;
28714;SDS011;15886;49.170;14.572;2023-01-30T05:51:20;29.35;;;14.93;;
28714;SDS011;15886;49.170;14.572;2023-01-30T05:53:51;29.02;;;15.23;;
28714;SDS011;15886;49.170;14.572;2023-01-30T05:56:24;23.80;;;13.15;;
28714;SDS011;15886;49.170;14.572;2023-01-30T06:00:04;21.88;;;12.10;;
28714;SDS011;15886;49.170;14.572;2023-01-30T06:02:48;25.75;;;13.43;;
28714;SDS011;15886;49.170;14.572;2023-01-30T06:05:16;23.35;;;12.73;;
28714;SDS011;15886;49.170;14.572;2023-01-30T06:07:44;25.90;;;13.18;;
28714;SDS011;15886;49.170;14.572;2023-01-30T06:10:21;24.05;;;13.25;;
28714;SDS011;15886;49.170;14.572;2023-01-30T06:12:49;29.83;;;15.18;;
28714;SDS011;15886;49.170;14.572;2023-01-30T06:15:20;26.25;;;15.02;;
28714;SDS011;15886;49.170;14.572;2023-01-30T06:17:50;28.27;;;14.57;;
28714;SDS011;15886;49.170;14.572;2023-01-30T06:22:50;27.10;;;15.27;;
28714;SDS011;15886;49.170;14.572;2023-01-30T06:25:20;28.30;;;14.85;;
28714;SDS011;15886;49.170;14.572;2023-01-30T06:27:48;27.38;;;15.20;;
28714;SDS011;15886;49.170;14.572;2023-01-30T06:30:26;31.02;;;16.13;;
28714;SDS011;15886;49.170;14.572;2023-01-30T06:32:54;29.98;;;16.42;;
28714;SDS011;15886;49.170;14.572;2023-01-30T06:35:22;25.33;;;14.45;;
28714;SDS011;15886;49.170;14.572;2023-01-30T06:37:50;27.95;;;16.08;;
28714;SDS011;15886;49.170;14.572;2023-01-30T06:40:18;28.83;;;16.25;;
28714;SDS011;15886;49.170;14.572;2023-01-30T06:42:46;29.38;;;15.45;;
28714;SDS011;15886;49.170;14.572;2023-01-30T06:45:17;29.15;;;16.08;;
28714;SDS011;15886;49.170;14.572;2023-01-30T06:47:59;30.17;;;16.90;;
28714;SDS011;15886;49.170;14.572;2023-01-30T06:50:27;26.23;;;14.80;;
28714;SDS011;15886;49.170;14.572;2023-01-30T06:52:56;33.38;;;17.45;;
28714;SDS011;15886;49.170;14.572;2023-01-30T06:55:25;26.98;;;15.13;;
28714;SDS011;15886;49.170;14.572;2023-01-30T06:58:29;27.17;;;14.70;;
28714;SDS011;15886;49.170;14.572;2023-01-30T07:00:49;32.80;;;15.90;;
28714;SDS011;15886;49.170;14.572;2023-01-30T07:03:17;28.30;;;15.65;;
28714;SDS011;15886;49.170;14.572;2023-01-30T07:05:45;23.75;;;13.60;;
28714;SDS011;15886;49.170;14.572;2023-01-30T07:08:15;29.10;;;15.25;;
28714;SDS011;15886;49.170;14.572;2023-01-30T07:10:44;27.15;;;15.43;;
28714;SDS011;15886;49.170;14.572;2023-01-30T07:16:08;26.00;;;13.98;;
28714;SDS011;15886;49.170;14.572;2023-01-30T07:18:36;27.00;;;14.63;;
28714;SDS011;15886;49.170;14.572;2023-01-30T07:21:15;23.08;;;13.20;;
28714;SDS011;15886;49.170;14.572;2023-01-30T07:23:45;24.17;;;13.57;;
28714;SDS011;15886;49.170;14.572;2023-01-30T07:29:07;28.25;;;15.50;;
28714;SDS011;15886;49.170;14.572;2023-01-30T07:31:35;26.98;;;14.10;;
28714;SDS011;15886;49.170;14.572;2023-01-30T07:34:03;24.80;;;14.65;;
28714;SDS011;15886;49.170;14.572;2023-01-30T07:36:32;26.50;;;15.20;;
28714;SDS011;15886;49.170;14.572;2023-01-30T07:39:03;26.05;;;14.23;;
28714;SDS011;15886;49.170;14.572;2023-01-30T07:41:36;24.88;;;14.00;;
28714;SDS011;15886;49.170;14.572;2023-01-30T07:44:09;26.42;;;15.23;;
28714;SDS011;15886;49.170;14.572;2023-01-30T07:46:39;22.60;;;14.07;;
28714;SDS011;15886;49.170;14.572;2023-01-30T07:49:08;23.77;;;13.27;;
28714;SDS011;15886;49.170;14.572;2023-01-30T07:51:45;26.98;;;14.13;;
28714;SDS011;15886;49.170;14.572;2023-01-30T07:54:13;24.33;;;13.85;;
28714;SDS011;15886;49.170;14.572;2023-01-30T07:56:47;24.80;;;14.40;;
28714;SDS011;15886;49.170;14.572;2023-01-30T07:59:15;27.17;;;14.10;;
28714;SDS011;15886;49.170;14.572;2023-01-30T08:01:44;24.13;;;13.63;;
28714;SDS011;15886;49.170;14.572;2023-01-30T08:04:12;26.40;;;14.02;;
28714;SDS011;15886;49.170;14.572;2023-01-30T08:06:40;26.05;;;13.75;;
28714;SDS011;15886;49.170;14.572;2023-01-30T08:09:09;25.20;;;14.70;;
28714;SDS011;15886;49.170;14.572;2023-01-30T08:11:37;23.27;;;13.77;;
28714;SDS011;15886;49.170;14.572;2023-01-30T08:14:05;24.27;;;13.70;;
28714;SDS011;15886;49.170;14.572;2023-01-30T08:16:33;25.05;;;13.68;;
28714;SDS011;15886;49.170;14.572;2023-01-30T08:19:03;25.70;;;12.48;;
28714;SDS011;15886;49.170;14.572;2023-01-30T08:21:32;26.15;;;12.88;;
28714;SDS011;15886;49.170;14.572;2023-01-30T08:24:00;23.73;;;12.75;;
28714;SDS011;15886;49.170;14.572;2023-01-30T08:26:28;19.40;;;11.68;;
28714;SDS011;15886;49.170;14.572;2023-01-30T08:28:56;23.60;;;11.00;;
28714;SDS011;15886;49.170;14.572;2023-01-30T08:31:25;21.23;;;12.23;;
28714;SDS011;15886;49.170;14.572;2023-01-30T08:33:53;18.33;;;10.95;;
28714;SDS011;15886;49.170;14.572;2023-01-30T08:36:22;17.60;;;10.65;;
28714;SDS011;15886;49.170;14.572;2023-01-30T08:38:50;16.90;;;10.63;;
28714;SDS011;15886;49.170;14.572;2023-01-30T08:41:18;17.80;;;9.98;;
28714;SDS011;15886;49.170;14.572;2023-01-30T08:43:46;17.13;;;10.02;;
28714;SDS011;15886;49.170;14.572;2023-01-30T08:46:15;18.48;;;9.80;;
28714;SDS011;15886;49.170;14.572;2023-01-30T08:48:48;14.75;;;9.23;;
28714;SDS011;15886;49.170;14.572;2023-01-30T08:51:16;15.18;;;9.00;;
28714;SDS011;15886;49.170;14.572;2023-01-30T08:53:44;16.13;;;9.73;;
28714;SDS011;15886;49.170;14.572;2023-01-30T08:56:12;17.20;;;9.20;;
28714;SDS011;15886;49.170;14.572;2023-01-30T08:58:40;15.30;;;8.82;;
28714;SDS011;15886;49.170;14.572;2023-01-30T09:01:10;15.45;;;8.82;;
28714;SDS011;15886;49.170;14.572;2023-01-30T09:03:38;15.00;;;9.15;;
28714;SDS011;15886;49.170;14.572;2023-01-30T09:06:06;16.05;;;8.98;;
28714;SDS011;15886;49.170;14.572;2023-01-30T09:08:34;15.60;;;8.73;;
28714;SDS011;15886;49.170;14.572;2023-01-30T09:11:03;15.18;;;8.27;;
28714;SDS011;15886;49.170;14.572;2023-01-30T09:13:33;15.30;;;8.93;;
28714;SDS011;15886;49.170;14.572;2023-01-30T09:16:02;12.90;;;8.10;;
28714;SDS011;15886;49.170;14.572;2023-01-30T09:18:32;14.60;;;8.65;;
28714;SDS011;15886;49.170;14.572;2023-01-30T09:21:03;14.52;;;8.73;;
28714;SDS011;15886;49.170;14.572;2023-01-30T09:23:32;12.10;;;8.02;;
28714;SDS011;15886;49.170;14.572;2023-01-30T09:26:00;14.10;;;8.43;;
28714;SDS011;15886;49.170;14.572;2023-01-30T09:28:28;14.68;;;8.95;;
28714;SDS011;15886;49.170;14.572;2023-01-30T09:30:57;15.45;;;9.68;;
28714;SDS011;15886;49.170;14.572;2023-01-30T09:33:26;13.82;;;8.60;;
28714;SDS011;15886;49.170;14.572;2023-01-30T09:35:54;13.65;;;7.57;;
28714;SDS011;15886;49.170;14.572;2023-01-30T09:38:22;11.65;;;8.18;;
28714;SDS011;15886;49.170;14.572;2023-01-30T09:54:49;15.43;;;8.32;;
28714;SDS011;15886;49.170;14.572;2023-01-30T09:57:24;13.63;;;8.07;;
28714;SDS011;15886;49.170;14.572;2023-01-30T09:59:55;15.27;;;8.95;;
28714;SDS011;15886;49.170;14.572;2023-01-30T10:05:30;13.02;;;8.23;;
28714;SDS011;15886;49.170;14.572;2023-01-30T10:27:33;14.63;;;9.13;;
28714;SDS011;15886;49.170;14.572;2023-01-30T10:30:35;15.30;;;9.00;;
28714;SDS011;15886;49.170;14.572;2023-01-30T10:33:07;20.75;;;10.77;;
28714;SDS011;15886;49.170;14.572;2023-01-30T10:35:54;36.00;;;14.50;;
28714;SDS011;15886;49.170;14.572;2023-01-30T10:38:45;16.88;;;9.48;;
28714;SDS011;15886;49.170;14.572;2023-01-30T10:41:50;14.35;;;8.15;;
28714;SDS011;15886;49.170;14.572;2023-01-30T10:44:30;11.10;;;7.28;;
28714;SDS011;15886;49.170;14.572;2023-01-30T10:50:16;15.90;;;8.23;;
28714;SDS011;15886;49.170;14.572;2023-01-30T10:52:59;18.00;;;9.00;;
28714;SDS011;15886;49.170;14.572;2023-01-30T10:55:44;14.15;;;8.40;;
28714;SDS011;15886;49.170;14.572;2023-01-30T10:58:42;12.05;;;7.85;;
28714;SDS011;15886;49.170;14.572;2023-01-30T11:01:32;14.55;;;8.48;;
28714;SDS011;15886;49.170;14.572;2023-01-30T11:04:24;14.82;;;8.63;;
28714;SDS011;15886;49.170;14.572;2023-01-30T11:06:55;11.63;;;7.68;;
28714;SDS011;15886;49.170;14.572;2023-01-30T11:12:08;14.60;;;8.85;;
28714;SDS011;15886;49.170;14.572;2023-01-30T11:17:19;16.17;;;8.82;;
28714;SDS011;15886;49.170;14.572;2023-01-30T11:19:55;17.58;;;9.52;;
28714;SDS011;15886;49.170;14.572;2023-01-30T11:22:24;15.05;;;9.15;;
28714;SDS011;15886;49.170;14.572;2023-01-30T11:25:00;14.15;;;8.70;;
28714;SDS011;15886;49.170;14.572;2023-01-30T11:27:33;17.65;;;9.93;;
28714;SDS011;15886;49.170;14.572;2023-01-30T11:30:11;14.48;;;8.82;;
28714;SDS011;15886;49.170;14.572;2023-01-30T11:32:42;13.82;;;8.63;;
28714;SDS011;15886;49.170;14.572;2023-01-30T11:37:42;15.52;;;9.02;;
28714;SDS011;15886;49.170;14.572;2023-01-30T11:43:04;15.07;;;8.10;;
28714;SDS011;15886;49.170;14.572;2023-01-30T11:45:43;14.20;;;8.65;;
28714;SDS011;15886;49.170;14.572;2023-01-30T11:48:18;15.85;;;9.48;;
28714;SDS011;15886;49.170;14.572;2023-01-30T11:51:02;17.95;;;9.77;;
28714;SDS011;15886;49.170;14.572;2023-01-30T11:53:33;14.15;;;9.27;;
28714;SDS011;15886;49.170;14.572;2023-01-30T12:01:26;13.02;;;7.57;;
28714;SDS011;15886;49.170;14.572;2023-01-30T12:06:36;14.43;;;7.57;;
28714;SDS011;15886;49.170;14.572;2023-01-30T12:09:11;14.05;;;8.27;;
28714;SDS011;15886;49.170;14.572;2023-01-30T12:12:26;12.23;;;8.25;;
28714;SDS011;15886;49.170;14.572;2023-01-30T12:20:48;15.52;;;8.98;;
28714;SDS011;15886;49.170;14.572;2023-01-30T12:23:40;13.20;;;8.57;;
28714;SDS011;15886;49.170;14.572;2023-01-30T12:26:20;20.38;;;9.30;;
28714;SDS011;15886;49.170;14.572;2023-01-30T12:34:43;20.25;;;13.55;;
28714;SDS011;15886;49.170;14.572;2023-01-30T12:39:49;15.07;;;8.60;;
28714;SDS011;15886;49.170;14.572;2023-01-30T12:52:17;13.57;;;7.80;;
28714;SDS011;15886;49.170;14.572;2023-01-30T12:54:38;11.40;;;7.90;;
28714;SDS011;15886;49.170;14.572;2023-01-30T13:11:11;13.15;;;8.38;;
28714;SDS011;15886;49.170;14.572;2023-01-30T13:13:49;10.23;;;6.70;;
28714;SDS011;15886;49.170;14.572;2023-01-30T13:16:27;9.27;;;4.90;;
28714;SDS011;15886;49.170;14.572;2023-01-30T13:19:04;8.95;;;5.15;;
28714;SDS011;15886;49.170;14.572;2023-01-30T13:27:53;5.63;;;3.58;;
28714;SDS011;15886;49.170;14.572;2023-01-30T13:30:24;9.35;;;5.45;;
28714;SDS011;15886;49.170;14.572;2023-01-30T13:32:55;20.33;;;11.70;;
28714;SDS011;15886;49.170;14.572;2023-01-30T13:35:30;12.48;;;7.38;;
28714;SDS011;15886;49.170;14.572;2023-01-30T13:38:09;13.00;;;7.63;;
28714;SDS011;15886;49.170;14.572;2023-01-30T13:40:59;7.72;;;5.20;;
28714;SDS011;15886;49.170;14.572;2023-01-30T13:43:34;8.73;;;4.47;;
28714;SDS011;15886;49.170;14.572;2023-01-30T13:51:46;6.40;;;4.18;;
28714;SDS011;15886;49.170;14.572;2023-01-30T13:54:22;5.72;;;4.20;;
28714;SDS011;15886;49.170;14.572;2023-01-30T14:00:32;5.93;;;4.30;;
28714;SDS011;15886;49.170;14.572;2023-01-30T14:11:26;53.05;;;19.08;;
28714;SDS011;15886;49.170;14.572;2023-01-30T14:14:25;29.77;;;9.73;;
28714;SDS011;15886;49.170;14.572;2023-01-30T14:16:56;7.57;;;4.07;;
28714;SDS011;15886;49.170;14.572;2023-01-30T14:25:46;2.70;;;2.13;;
28714;SDS011;15886;49.170;14.572;2023-01-30T14:30:57;2.65;;;2.03;;
28714;SDS011;15886;49.170;14.572;2023-01-30T14:33:30;2.40;;;1.85;;
28714;SDS011;15886;49.170;14.572;2023-01-30T14:38:29;2.80;;;1.90;;
28714;SDS011;15886;49.170;14.572;2023-01-30T15:02:41;4.13;;;2.05;;
28714;SDS011;15886;49.170;14.572;2023-01-30T15:05:18;3.42;;;2.22;;
28714;SDS011;15886;49.170;14.572;2023-01-30T15:27:06;3.25;;;2.42;;
28714;SDS011;15886;49.170;14.572;2023-01-30T15:32:36;38.08;;;16.50;;
28714;SDS011;15886;49.170;14.572;2023-01-30T15:35:18;18.42;;;8.45;;
28714;SDS011;15886;49.170;14.572;2023-01-30T15:37:52;25.60;;;11.60;;
28714;SDS011;15886;49.170;14.572;2023-01-30T15:40:26;9.23;;;5.68;;
28714;SDS011;15886;49.170;14.572;2023-01-30T15:48:13;6.70;;;4.43;;
28714;SDS011;15886;49.170;14.572;2023-01-30T15:53:26;10.98;;;6.05;;
28714;SDS011;15886;49.170;14.572;2023-01-30T15:56:16;12.55;;;7.32;;
28714;SDS011;15886;49.170;14.572;2023-01-30T15:58:48;18.33;;;10.68;;
28714;SDS011;15886;49.170;14.572;2023-01-30T16:01:23;10.13;;;6.15;;
28714;SDS011;15886;49.170;14.572;2023-01-30T16:03:52;20.45;;;10.73;;
28714;SDS011;15886;49.170;14.572;2023-01-30T16:06:31;21.83;;;13.27;;
28714;SDS011;15886;49.170;14.572;2023-01-30T16:09:11;28.13;;;13.93;;
28714;SDS011;15886;49.170;14.572;2023-01-30T16:15:03;11.85;;;5.80;;
28714;SDS011;15886;49.170;14.572;2023-01-30T16:17:51;9.18;;;5.15;;
28714;SDS011;15886;49.170;14.572;2023-01-30T16:20:42;11.55;;;7.38;;
28714;SDS011;15886;49.170;14.572;2023-01-30T16:23:27;24.42;;;12.25;;
28714;SDS011;15886;49.170;14.572;2023-01-30T16:26:08;12.13;;;5.28;;
28714;SDS011;15886;49.170;14.572;2023-01-30T16:29:05;8.40;;;5.20;;
28714;SDS011;15886;49.170;14.572;2023-01-30T16:31:43;9.32;;;5.13;;
28714;SDS011;15886;49.170;14.572;2023-01-30T16:37:02;7.97;;;5.32;;
28714;SDS011;15886;49.170;14.572;2023-01-30T16:40:11;9.15;;;5.80;;
28714;SDS011;15886;49.170;14.572;2023-01-30T16:51:00;6.30;;;4.07;;
28714;SDS011;15886;49.170;14.572;2023-01-30T16:53:55;9.85;;;5.20;;
28714;SDS011;15886;49.170;14.572;2023-01-30T16:56:35;6.03;;;3.97;;
28714;SDS011;15886;49.170;14.572;2023-01-30T16:59:04;12.35;;;6.47;;
28714;SDS011;15886;49.170;14.572;2023-01-30T17:01:37;7.55;;;5.63;;
28714;SDS011;15886;49.170;14.572;2023-01-30T17:04:14;10.15;;;5.45;;
28714;SDS011;15886;49.170;14.572;2023-01-30T17:06:54;7.70;;;3.97;;
28714;SDS011;15886;49.170;14.572;2023-01-30T17:09:35;10.93;;;7.45;;
28714;SDS011;15886;49.170;14.572;2023-01-30T17:17:41;9.40;;;5.45;;
28714;SDS011;15886;49.170;14.572;2023-01-30T17:20:18;15.27;;;8.30;;
28714;SDS011;15886;49.170;14.572;2023-01-30T17:22:48;7.85;;;4.38;;
28714;SDS011;15886;49.170;14.572;2023-01-30T17:25:26;6.53;;;3.25;;
28714;SDS011;15886;49.170;14.572;2023-01-30T17:27:59;7.95;;;5.35;;
28714;SDS011;15886;49.170;14.572;2023-01-30T17:30:32;4.82;;;3.55;;
28714;SDS011;15886;49.170;14.572;2023-01-30T17:33:29;6.68;;;4.07;;
28714;SDS011;15886;49.170;14.572;2023-01-30T17:35:58;9.18;;;6.25;;
28714;SDS011;15886;49.170;14.572;2023-01-30T17:38:35;7.97;;;5.45;;
28714;SDS011;15886;49.170;14.572;2023-01-30T17:41:35;6.15;;;3.40;;
28714;SDS011;15886;49.170;14.572;2023-01-30T17:44:07;6.95;;;4.03;;
28714;SDS011;15886;49.170;14.572;2023-01-30T17:47:20;10.02;;;4.32;;
28714;SDS011;15886;49.170;14.572;2023-01-30T17:49:50;4.32;;;3.10;;
28714;SDS011;15886;49.170;14.572;2023-01-30T17:52:59;4.60;;;3.50;;
28714;SDS011;15886;49.170;14.572;2023-01-30T17:55:46;4.60;;;3.35;;
28714;SDS011;15886;49.170;14.572;2023-01-30T17:59:05;6.18;;;3.78;;
28714;SDS011;15886;49.170;14.572;2023-01-30T18:02:11;9.68;;;5.65;;
28714;SDS011;15886;49.170;14.572;2023-01-30T18:09:25;5.70;;;4.03;;
28714;SDS011;15886;49.170;14.572;2023-01-30T18:19:34;4.88;;;3.60;;
28714;SDS011;15886;49.170;14.572;2023-01-30T18:26:41;8.50;;;4.75;;
28714;SDS011;15886;49.170;14.572;2023-01-30T18:30:22;16.17;;;8.50;;
28714;SDS011;15886;49.170;14.572;2023-01-30T18:32:52;27.20;;;13.82;;
28714;SDS011;15886;49.170;14.572;2023-01-30T18:35:25;16.92;;;9.05;;
28714;SDS011;15886;49.170;14.572;2023-01-30T18:37:54;12.57;;;5.75;;
28714;SDS011;15886;49.170;14.572;2023-01-30T18:40:28;10.85;;;6.50;;
28714;SDS011;15886;49.170;14.572;2023-01-30T18:42:56;7.32;;;4.85;;
28714;SDS011;15886;49.170;14.572;2023-01-30T19:02:15;5.97;;;3.50;;
28714;SDS011;15886;49.170;14.572;2023-01-30T19:05:06;6.75;;;4.50;;
28714;SDS011;15886;49.170;14.572;2023-01-30T19:11:16;7.90;;;4.13;;
28714;SDS011;15886;49.170;14.572;2023-01-30T19:14:21;8.85;;;4.25;;
28714;SDS011;15886;49.170;14.572;2023-01-30T19:17:19;5.68;;;3.63;;
28714;SDS011;15886;49.170;14.572;2023-01-30T19:19:57;13.15;;;7.55;;
28714;SDS011;15886;49.170;14.572;2023-01-30T19:22:59;10.05;;;4.47;;
28714;SDS011;15886;49.170;14.572;2023-01-30T19:26:02;11.30;;;4.28;;
28714;SDS011;15886;49.170;14.572;2023-01-30T19:33:29;7.10;;;4.45;;
28714;SDS011;15886;49.170;14.572;2023-01-30T19:36:49;11.15;;;4.30;;
28714;SDS011;15886;49.170;14.572;2023-01-30T19:39:49;6.53;;;3.75;;
28714;SDS011;15886;49.170;14.572;2023-01-30T19:43:00;7.88;;;3.88;;
28714;SDS011;15886;49.170;14.572;2023-01-30T19:45:41;6.65;;;4.05;;
28714;SDS011;15886;49.170;14.572;2023-01-30T19:48:12;9.95;;;4.50;;
28714;SDS011;15886;49.170;14.572;2023-01-30T19:50:41;11.07;;;4.22;;